Time;durP1;ratioP1;P1;durP2;ratioP2;P2;SDS_P1;SDS_P2;PMS_P1;PMS_P2;Temp;Humidity;BMP_temperature;BMP_pressure;BME280_temperature;BME280_humidity;BME280_pressure;Samples;Min_cycle;Max_cycle;Signal;HPM_P1;HPM_P2
2021/09/01 00:00:45;;;;;;;11.85;9.18;;;11.30;99.90;;;;;;6164091;28;20157;-80
2021/09/01 00:03:46;;;;;;;11.68;8.38;;;10.80;99.90;;;;;;6179892;28;20652;-80
2021/09/01 00:06:46;;;;;;;9.73;8.65;;;11.20;99.90;;;;;;6164098;28;20022;-82
2021/09/01 00:09:47;;;;;;;12.82;8.15;;;10.80;99.90;;;;;;6147998;28;20468;-82
2021/09/01 00:12:47;;;;;;;10.75;9.43;;;10.90;99.90;;;;;;6148017;28;20038;-79
2021/09/01 00:15:48;;;;;;;10.82;9.52;;;11.00;99.90;;;;;;6163859;28;20113;-79
2021/09/01 00:18:48;;;;;;;9.85;8.85;;;11.10;99.90;;;;;;6163922;28;20026;-80
2021/09/01 00:21:49;;;;;;;11.55;8.50;;;10.90;99.90;;;;;;6163646;28;20026;-83
2021/09/01 00:24:50;;;;;;;11.07;9.25;;;10.80;99.90;;;;;;6179670;28;20026;-79
2021/09/01 00:27:51;;;;;;;10.95;9.38;;;;;;;;;;6163341;28;20108;-79
2021/09/01 00:30:51;;;;;;;11.60;8.77;;;11.10;99.90;;;;;;6179614;28;20038;-79
2021/09/01 00:33:52;;;;;;;11.98;8.45;;;;;;;;;;6163979;28;20049;-82
2021/09/01 00:36:53;;;;;;;10.07;8.05;;;10.60;99.90;;;;;;6196395;28;20058;-79
2021/09/01 00:39:54;;;;;;;10.20;8.27;;;;;;;;;;6163230;28;20085;-80
2021/09/01 00:42:55;;;;;;;9.52;8.52;;;10.70;99.90;;;;;;6178804;28;20150;-80
2021/09/01 00:45:56;;;;;;;9.85;8.82;;;;;;;;;;6162843;28;20034;-80
2021/09/01 00:48:57;;;;;;;12.43;8.88;;;;;;;;;;6179039;28;20018;-79
2021/09/01 00:51:58;;;;;;;11.35;8.65;;;10.50;99.90;;;;;;6178346;28;20037;-79
2021/09/01 00:54:59;;;;;;;9.57;8.50;;;10.60;99.90;;;;;;6162573;28;20030;-79
2021/09/01 00:58:00;;;;;;;9.27;8.35;;;10.70;99.90;;;;;;6163169;28;20380;-79
2021/09/01 01:01:16;;;;;;;11.05;8.82;;;10.50;99.90;;;;;;6162986;28;20030;-79
2021/09/01 01:04:17;;;;;;;9.30;8.15;;;10.40;99.90;;;;;;6166762;28;20039;-82
2021/09/01 01:07:18;;;;;;;11.68;8.85;;;10.80;99.90;;;;;;6162919;28;20018;-79
2021/09/01 01:10:19;;;;;;;10.93;9.45;;;10.60;99.90;;;;;;6162337;28;20611;-81
2021/09/01 01:13:19;;;;;;;12.68;10.40;;;10.50;99.90;;;;;;6178316;28;20030;-82
2021/09/01 01:16:23;;;;;;;13.55;10.80;;;10.60;99.90;;;;;;6194918;28;20121;-80
2021/09/01 01:19:24;;;;;;;11.82;10.23;;;10.70;99.90;;;;;;6178186;28;20030;-78
2021/09/01 01:22:25;;;;;;;11.27;10.07;;;10.60;99.90;;;;;;6178499;28;20085;-79
2021/09/01 01:25:31;;;;;;;11.38;9.85;;;10.60;99.90;;;;;;6162052;28;20038;-79
2021/09/01 01:28:32;;;;;;;11.95;9.63;;;10.60;99.90;;;;;;6195132;28;20081;-79
2021/09/01 01:31:33;;;;;;;12.93;9.73;;;10.60;99.90;;;;;;6162010;28;20026;-79
2021/09/01 01:34:33;;;;;;;14.32;10.65;;;10.60;99.90;;;;;;6162065;28;20041;-79
2021/09/01 01:37:34;;;;;;;11.45;10.25;;;10.50;99.90;;;;;;6161658;28;20657;-83
2021/09/01 01:40:35;;;;;;;14.25;11.18;;;10.60;99.90;;;;;;6161782;28;20026;-79
2021/09/01 01:43:38;;;;;;;13.45;10.52;;;10.60;99.90;;;;;;6161852;28;20034;-81
2021/09/01 01:46:39;;;;;;;12.15;9.45;;;10.70;99.90;;;;;;6162562;28;20048;-84
2021/09/01 01:49:40;;;;;;;21.17;11.50;;;10.70;99.90;;;;;;6161314;28;20457;-82
2021/09/01 01:52:40;;;;;;;11.73;10.15;;;10.70;99.90;;;;;;6177980;28;20030;-79
2021/09/01 01:55:41;;;;;;;14.55;10.80;;;10.80;99.90;;;;;;6160899;28;20034;-81
2021/09/01 01:58:41;;;;;;;13.05;10.25;;;10.70;99.90;;;;;;6161552;28;20023;-80
2021/09/01 02:01:42;;;;;;;12.23;9.77;;;11.40;99.90;;;;;;6176653;28;20030;-79
2021/09/01 02:04:43;;;;;;;12.85;10.75;;;10.60;99.90;;;;;;6144821;28;20039;-79
2021/09/01 02:07:43;;;;;;;16.38;10.25;;;10.60;99.90;;;;;;6161637;28;20165;-82
2021/09/01 02:10:44;;;;;;;14.55;10.73;;;11.50;99.90;;;;;;6161125;28;20030;-83
2021/09/01 02:13:44;;;;;;;12.75;10.43;;;10.40;99.90;;;;;;6177270;28;20037;-79
2021/09/01 02:16:45;;;;;;;12.93;10.68;;;;;;;;;;6160968;28;20041;-81
2021/09/01 02:19:46;;;;;;;13.30;10.85;;;10.50;99.90;;;;;;6194692;28;20037;-79
2021/09/01 02:22:47;;;;;;;13.73;10.65;;;10.50;99.90;;;;;;6177371;28;20042;-79
2021/09/01 02:25:48;;;;;;;13.52;11.00;;;10.80;99.90;;;;;;6161364;28;20069;-81
2021/09/01 02:28:49;;;;;;;15.23;11.68;;;;;;;;;;6160964;28;20034;-79
2021/09/01 02:31:49;;;;;;;15.45;10.57;;;10.60;99.90;;;;;;6194612;28;20034;-80
2021/09/01 02:34:50;;;;;;;12.90;11.32;;;10.40;99.90;;;;;;6161149;28;20109;-79
2021/09/01 02:37:52;;;;;;;15.63;11.52;;;10.40;99.90;;;;;;6176664;28;20058;-80
2021/09/01 02:40:52;;;;;;;13.45;12.02;;;10.50;99.90;;;;;;6161830;28;20026;-83
2021/09/01 02:43:53;;;;;;;13.82;11.15;;;10.40;99.90;;;;;;6176777;28;20452;-81
2021/09/01 02:46:53;;;;;;;12.57;11.07;;;10.50;99.90;;;;;;6160834;28;20038;-78
2021/09/01 02:49:54;;;;;;;13.57;11.95;;;10.50;99.90;;;;;;6177042;28;20033;-79
2021/09/01 02:52:54;;;;;;;14.18;11.77;;;10.60;99.90;;;;;;6176852;28;20038;-81
2021/09/01 02:55:56;;;;;;;14.20;11.73;;;;;;;;;;6176899;28;20058;-79
2021/09/01 02:58:56;;;;;;;17.52;12.38;;;10.50;99.90;;;;;;6194396;28;20109;-79
2021/09/01 03:01:57;;;;;;;16.20;12.27;;;10.80;99.90;;;;;;6177155;28;20045;-80
2021/09/01 03:04:57;;;;;;;15.13;12.35;;;10.80;99.90;;;;;;6160662;28;20042;-79
2021/09/01 03:07:58;;;;;;;15.25;11.88;;;10.60;99.90;;;;;;6160497;28;20038;-81
2021/09/01 03:10:59;;;;;;;14.80;12.32;;;10.60;99.90;;;;;;6144181;28;20113;-83
2021/09/01 03:13:59;;;;;;;14.32;12.18;;;10.80;99.90;;;;;;6161814;28;20077;-79
2021/09/01 03:17:00;;;;;;;16.45;12.30;;;11.30;99.90;;;;;;6149168;28;20364;-82
2021/09/01 03:20:00;;;;;;;13.80;12.15;;;11.00;99.90;;;;;;6165039;28;20077;-79
2021/09/01 03:23:01;;;;;;;24.02;11.98;;;10.90;99.90;;;;;;6164958;28;20022;-79
2021/09/01 03:26:03;;;;;;;12.70;11.00;;;10.90;99.90;;;;;;6165076;28;20101;-78
2021/09/01 03:29:04;;;;;;;16.63;11.00;;;10.90;99.90;;;;;;6164714;28;20041;-79
2021/09/01 03:32:04;;;;;;;13.88;10.80;;;10.90;99.90;;;;;;6180983;28;20346;-80
2021/09/01 03:35:06;;;;;;;16.48;11.13;;;10.90;99.90;;;;;;6180833;28;20041;-79
2021/09/01 03:38:06;;;;;;;14.02;10.75;;;10.80;99.90;;;;;;6164241;28;20469;-81
2021/09/01 03:41:07;;;;;;;14.18;11.18;;;10.60;99.90;;;;;;6180699;28;20133;-79
2021/09/01 03:44:07;;;;;;;14.07;11.80;;;10.70;99.90;;;;;;6164187;28;20080;-79
2021/09/01 03:47:08;;;;;;;12.00;10.60;;;10.90;99.90;;;;;;6164842;28;20026;-81
2021/09/01 03:50:10;;;;;;;15.20;12.10;;;10.80;99.90;;;;;;6180351;28;20116;-79
2021/09/01 03:53:10;;;;;;;12.90;10.50;;;10.90;99.90;;;;;;6164436;28;20722;-79
2021/09/01 03:56:11;;;;;;;11.90;10.70;;;11.40;99.90;;;;;;6164193;28;20069;-79
2021/09/01 03:59:12;;;;;;;12.02;10.25;;;10.60;99.90;;;;;;6180144;28;20033;-84
2021/09/01 04:02:12;;;;;;;14.07;11.27;;;10.60;99.90;;;;;;6148317;28;20062;-79
2021/09/01 04:05:13;;;;;;;17.17;11.82;;;10.60;99.90;;;;;;6163622;28;20049;-79
2021/09/01 04:08:14;;;;;;;16.17;12.20;;;;;;;;;;6163969;28;20054;-79
2021/09/01 04:11:14;;;;;;;12.20;10.80;;;10.90;99.90;;;;;;6197695;28;20030;-79
2021/09/01 04:14:15;;;;;;;12.63;11.32;;;11.10;99.90;;;;;;6163968;28;20022;-79
2021/09/01 04:17:16;;;;;;;11.13;10.00;;;11.10;99.90;;;;;;6148104;28;20037;-79
2021/09/01 04:20:16;;;;;;;12.43;10.50;;;10.80;99.90;;;;;;6180036;28;20031;-79
2021/09/01 04:23:17;;;;;;;13.25;10.98;;;11.10;99.90;;;;;;6163844;28;20034;-79
2021/09/01 04:26:18;;;;;;;13.02;11.07;;;;;;;;;;6162557;28;20040;-82
2021/09/01 04:29:19;;;;;;;11.90;10.60;;;;;;;;;;6180255;28;20386;-79
2021/09/01 04:32:20;;;;;;;12.80;10.90;;;10.80;99.90;;;;;;6179498;28;20448;-83
2021/09/01 04:35:20;;;;;;;13.10;10.75;;;11.10;99.90;;;;;;6163254;28;20068;-79
2021/09/01 04:38:21;;;;;;;14.77;11.25;;;;;;;;;;6196430;28;20140;-79
2021/09/01 04:41:22;;;;;;;11.68;10.48;;;;;;;;;;6179577;28;20031;-81
2021/09/01 04:44:23;;;;;;;12.93;11.38;;;;;;;;;;6178775;28;20038;-83
2021/09/01 04:47:25;;;;;;;11.77;10.48;;;;;;;;;;6178735;28;20068;-80
2021/09/01 04:50:27;;;;;;;12.15;10.55;;;10.90;99.90;;;;;;6179310;28;20030;-80
2021/09/01 04:53:28;;;;;;;12.82;10.40;;;;;;;;;;6163095;28;20461;-81
2021/09/01 04:56:28;;;;;;;15.07;11.15;;;11.00;99.90;;;;;;6178980;28;20037;-79
2021/09/01 04:59:29;;;;;;;13.20;10.77;;;11.00;99.90;;;;;;6162600;28;20050;-79
2021/09/01 05:02:30;;;;;;;13.80;10.57;;;10.70;99.90;;;;;;6162331;28;20076;-80
2021/09/01 05:05:30;;;;;;;12.35;10.75;;;10.70;99.90;;;;;;6162431;28;20095;-80
2021/09/01 05:08:31;;;;;;;13.10;10.68;;;10.70;99.90;;;;;;6178280;28;20768;-82
2021/09/01 05:11:31;;;;;;;15.60;10.82;;;11.00;99.90;;;;;;6157024;28;20101;-83
2021/09/01 05:14:32;;;;;;;10.55;9.48;;;11.50;99.90;;;;;;6146522;28;20076;-83
2021/09/01 05:17:33;;;;;;;11.25;9.90;;;;;;;;;;6146229;28;20038;-81
2021/09/01 05:20:37;;;;;;;12.77;10.68;;;11.20;99.90;;;;;;6178367;28;20030;-81
2021/09/01 05:23:38;;;;;;;13.52;9.40;;;11.80;99.90;;;;;;6162313;28;20054;-81
2021/09/01 05:26:38;;;;;;;9.80;8.80;;;12.00;99.90;;;;;;6160282;28;20488;-80
2021/09/01 05:29:43;;;;;;;9.80;8.73;;;12.80;99.90;;;;;;6161973;28;20710;-80
2021/09/01 05:32:46;;;;;;;9.43;8.13;;;12.90;99.90;;;;;;6162135;28;20018;-81
2021/09/01 05:35:51;;;;;;;11.70;7.50;;;13.60;99.90;;;;;;6178211;28;20026;-79
2021/09/01 05:38:51;;;;;;;8.88;6.97;;;14.00;99.90;;;;;;6161614;28;20165;-79
2021/09/01 05:41:52;;;;;;;7.95;7.00;;;;;;;;;;6161815;28;20460;-80
2021/09/01 05:44:53;;;;;;;9.18;7.35;;;14.30;99.90;;;;;;6177385;28;20583;-82
2021/09/01 05:47:55;;;;;;;9.05;7.38;;;14.60;99.90;;;;;;6161788;28;20122;-85
2021/09/01 05:50:56;;;;;;;8.02;6.50;;;14.90;99.90;;;;;;6145403;28;20059;-82
2021/09/01 05:53:57;;;;;;;9.32;6.50;;;15.20;99.90;;;;;;6161693;28;20030;-83
2021/09/01 05:57:06;;;;;;;10.45;6.57;;;15.60;99.90;;;;;;6161479;28;20450;-83
2021/09/01 06:00:13;;;;;;;7.82;6.95;;;15.50;99.90;;;;;;6161757;28;20034;-81
2021/09/01 06:03:17;;;;;;;8.25;6.25;;;15.50;99.90;;;;;;6161430;28;20085;-80
2021/09/01 06:06:19;;;;;;;7.68;6.80;;;15.80;99.90;;;;;;6177717;28;20054;-82
2021/09/01 06:09:19;;;;;;;10.00;7.03;;;16.30;99.90;;;;;;6162054;28;20041;-80
2021/09/01 06:12:20;;;;;;;7.43;6.63;;;16.10;99.90;;;;;;6160317;28;20026;-80
2021/09/01 06:15:21;;;;;;;8.48;6.75;;;16.40;99.90;;;;;;6161389;28;20034;-79
2021/09/01 06:18:23;;;;;;;9.70;7.20;;;16.70;99.90;;;;;;6160411;28;20057;-79
2021/09/01 06:21:23;;;;;;;6.88;5.95;;;16.90;99.90;;;;;;6145218;28;20452;-81
2021/09/01 06:24:24;;;;;;;7.40;6.10;;;17.10;99.90;;;;;;6160401;28;20057;-81
2021/09/01 06:27:24;;;;;;;7.13;6.38;;;17.00;99.90;;;;;;6160998;28;20030;-81
2021/09/01 06:30:25;;;;;;;7.43;6.63;;;17.10;99.90;;;;;;6160676;28;20081;-81
2021/09/01 06:33:26;;;;;;;8.98;6.82;;;17.20;99.90;;;;;;6160817;28;20026;-81
2021/09/01 06:36:26;;;;;;;7.63;6.22;;;;;;;;;;6176806;28;20046;-83
2021/09/01 06:39:27;;;;;;;7.68;6.25;;;;;;;;;;6176976;28;20033;-81
2021/09/01 06:42:28;;;;;;;7.15;6.25;;;17.90;99.90;;;;;;6176625;28;20022;-82
2021/09/01 06:45:29;;;;;;;9.98;6.82;;;;;;;;;;6176632;28;20065;-81
2021/09/01 06:48:30;;;;;;;8.15;6.03;;;18.60;99.90;;;;;;6177718;28;20165;-82
2021/09/01 06:51:30;;;;;;;8.50;6.05;;;19.10;99.90;;;;;;6165512;28;20026;-84
2021/09/01 06:54:31;;;;;;;6.70;5.72;;;19.70;99.90;;;;;;6181528;28;20120;-83
2021/09/01 06:57:31;;;;;;;6.95;6.10;;;20.20;99.90;;;;;;6149656;28;20026;-82
2021/09/01 07:00:32;;;;;;;6.72;5.70;;;;;;;;;;6162863;28;20062;-82
2021/09/01 07:03:33;;;;;;;6.60;6.00;;;21.30;99.90;;;;;;6181125;28;20027;-86
2021/09/01 07:06:34;;;;;;;7.78;5.97;;;21.70;99.90;;;;;;6165276;28;20084;-81
2021/09/01 07:09:34;;;;;;;6.88;5.70;;;22.20;99.90;;;;;;6148456;28;20033;-82
2021/09/01 07:12:35;;;;;;;8.60;6.53;;;21.60;99.90;;;;;;6164688;28;20035;-81
2021/09/01 07:15:35;;;;;;;6.28;5.65;;;22.80;99.90;;;;;;6149475;28;20049;-82
2021/09/01 07:18:36;;;;;;;9.48;5.45;;;23.20;99.90;;;;;;6164967;28;20464;-81
2021/09/01 07:21:37;;;;;;;7.47;5.80;;;;;;;;;;6164637;28;20041;-82
2021/09/01 07:24:38;;;;;;;9.38;6.25;;;;;;;;;;6198508;28;20034;-85
2021/09/01 07:27:39;;;;;;;9.20;6.38;;;;;;;;;;6181600;28;20500;-80
2021/09/01 07:30:40;;;;;;;9.30;6.30;;;;;;;;;;6179788;28;20037;-82
2021/09/01 07:33:41;;;;;;;8.00;6.13;;;;;;;;;;6180407;28;20125;-80
2021/09/01 07:36:42;;;;;;;8.18;5.88;;;;;;;;;;6198124;28;20515;-78
2021/09/01 07:39:42;;;;;;;9.40;6.32;;;24.60;99.90;;;;;;6198418;28;20023;-80
2021/09/01 07:42:44;;;;;;;6.93;6.22;;;24.80;96.00;;;;;;6164520;28;20045;-82
2021/09/01 07:45:45;;;;;;;7.70;6.60;;;24.80;96.10;;;;;;6164555;28;20113;-83
2021/09/01 07:48:45;;;;;;;7.15;5.93;;;25.30;94.90;;;;;;6164644;28;20724;-81
2021/09/01 07:51:47;;;;;;;6.73;6.10;;;25.60;93.90;;;;;;6158708;28;20034;-82
2021/09/01 07:54:48;;;;;;;7.22;6.32;;;25.90;92.80;;;;;;6164835;28;20018;-81
2021/09/01 07:57:49;;;;;;;8.70;6.03;;;26.10;92.20;;;;;;6164039;28;20034;-83
2021/09/01 08:00:49;;;;;;;8.05;6.32;;;26.20;91.90;;;;;;6162968;28;20376;-80
2021/09/01 08:03:50;;;;;;;6.70;6.10;;;26.80;90.60;;;;;;6148383;28;20026;-80
2021/09/01 08:06:50;;;;;;;8.50;5.80;;;27.10;87.50;;;;;;6163553;28;20043;-81
2021/09/01 08:09:51;;;;;;;8.47;5.70;;;27.30;86.10;;;;;;6164394;28;20026;-80
2021/09/01 08:12:52;;;;;;;7.40;6.20;;;27.50;86.10;;;;;;6164078;28;20030;-81
2021/09/01 08:15:53;;;;;;;6.53;5.83;;;27.60;83.90;;;;;;6164130;28;20031;-81
2021/09/01 08:18:54;;;;;;;7.73;5.60;;;27.70;82.70;;;;;;6148158;28;20057;-81
2021/09/01 08:21:54;;;;;;;7.03;5.82;;;27.60;81.10;;;;;;6163928;28;20383;-80
2021/09/01 08:24:55;;;;;;;8.00;5.57;;;27.70;80.70;;;;;;6147887;28;20038;-80
2021/09/01 08:27:55;;;;;;;8.47;6.53;;;28.10;79.70;;;;;;6147464;28;20036;-79
2021/09/01 08:30:56;;;;;;;6.80;5.43;;;28.90;80.60;;;;;;6160343;28;20025;-83
2021/09/01 08:33:57;;;;;;;5.97;4.97;;;28.10;76.70;;;;;;6162823;28;20046;-82
2021/09/01 08:36:59;;;;;;;8.10;5.13;;;28.30;76.10;;;;;;6162590;28;20134;-80
2021/09/01 08:40:01;;;;;;;6.53;5.18;;;28.60;75.10;;;;;;6147471;28;20402;-82
2021/09/01 08:43:01;;;;;;;7.38;5.63;;;28.80;74.40;;;;;;6179448;28;20046;-82
2021/09/01 08:46:02;;;;;;;7.80;4.90;;;29.20;68.60;;;;;;6162787;28;20042;-86
2021/09/01 08:49:06;;;;;;;7.97;5.20;;;29.30;62.40;;;;;;6163508;28;20022;-81
2021/09/01 08:52:06;;;;;;;6.78;4.93;;;29.70;64.20;;;;;;6179247;28;20084;-81
2021/09/01 08:55:09;;;;;;;7.50;5.00;;;30.00;60.00;;;;;;6163124;28;20034;-79
2021/09/01 08:58:09;;;;;;;5.57;4.70;;;29.90;62.70;;;;;;6162899;28;20044;-80
2021/09/01 09:01:39;;;;;;;5.30;4.60;;;30.10;59.50;;;;;;6161111;28;20053;-82
2021/09/01 09:04:40;;;;;;;4.80;4.32;;;30.10;57.20;;;;;;6176570;28;20034;-82
2021/09/01 09:07:54;;;;;;;5.30;4.80;;;30.00;54.80;;;;;;6178641;28;20060;-80
2021/09/01 09:10:54;;;;;;;5.25;4.75;;;29.60;59.70;;;;;;6162008;28;20018;-80
2021/09/01 09:13:55;;;;;;;6.93;4.77;;;29.40;56.70;;;;;;6159504;28;20118;-80
2021/09/01 09:17:19;;;;;;;6.77;4.70;;;28.80;54.80;;;;;;6161942;28;20026;-79
2021/09/01 09:20:28;;;;;;;5.13;4.43;;;27.90;57.10;;;;;;6168280;28;20076;-79
2021/09/01 09:23:31;;;;;;;5.70;4.75;;;27.40;57.00;;;;;;6177730;28;20527;-80
2021/09/01 09:26:33;;;;;;;5.50;4.80;;;27.30;59.30;;;;;;6145664;28;20037;-79
2021/09/01 09:29:34;;;;;;;5.47;4.63;;;27.40;57.60;;;;;;6146421;28;20030;-79
2021/09/01 09:32:34;;;;;;;6.03;4.83;;;27.10;58.10;;;;;;6178065;28;20472;-80
2021/09/01 09:35:45;;;;;;;5.63;4.60;;;26.00;56.90;;;;;;6177490;28;20030;-79
2021/09/01 09:38:46;;;;;;;5.00;4.50;;;26.30;58.50;;;;;;6195468;28;20142;-79
2021/09/01 09:41:51;;;;;;;5.07;4.57;;;25.70;59.00;;;;;;6177633;28;20034;-78
2021/09/01 09:44:51;;;;;;;5.70;4.53;;;25.90;57.60;;;;;;6142417;28;20050;-79
2021/09/01 09:47:53;;;;;;;6.43;4.53;;;26.20;57.70;;;;;;6161325;28;20053;-80
2021/09/01 09:50:54;;;;;;;6.50;5.10;;;26.00;59.80;;;;;;6177238;28;20484;-79
2021/09/01 09:53:54;;;;;;;6.47;4.60;;;26.30;60.70;;;;;;6161409;28;20067;-80
2021/09/01 09:57:09;;;;;;;4.97;4.33;;;26.10;57.90;;;;;;6177919;28;20014;-84
2021/09/01 10:00:10;;;;;;;5.88;4.65;;;26.30;71.20;;;;;;6178351;28;20030;-83
2021/09/01 10:03:10;;;;;;;5.00;4.50;;;26.10;57.70;;;;;;6161392;28;20022;-82
2021/09/01 10:06:14;;;;;;;5.77;4.30;;;26.80;72.70;;;;;;6145596;28;20084;-83
2021/09/01 10:09:14;;;;;;;5.40;4.90;;;26.60;73.90;;;;;;6161990;28;20753;-82
2021/09/01 10:12:15;;;;;;;5.30;4.63;;;26.40;57.90;;;;;;6161921;28;20034;-81
2021/09/01 10:15:25;;;;;;;5.43;4.73;;;26.10;58.80;;;;;;6161239;28;20033;-84
2021/09/01 10:18:26;;;;;;;5.35;4.60;;;25.60;58.20;;;;;;6176059;28;20027;-84
2021/09/01 10:21:29;;;;;;;5.10;4.38;;;25.60;60.40;;;;;;6144497;28;20018;-82
2021/09/01 10:24:34;;;;;;;5.30;4.75;;;25.80;60.40;;;;;;6159420;28;20046;-85
2021/09/01 10:27:35;;;;;;;6.18;4.43;;;25.80;58.20;;;;;;6146262;28;20452;-83
2021/09/01 10:30:36;;;;;;;5.20;4.70;;;25.80;87.90;;;;;;6145294;28;20162;-82
2021/09/01 10:33:37;;;;;;;7.50;4.97;;;25.80;87.10;;;;;;6161616;28;20041;-83
2021/09/01 10:36:39;;;;;;;7.00;4.65;;;25.70;69.10;;;;;;6144645;28;20113;-86
2021/09/01 10:39:40;;;;;;;4.80;4.30;;;;;;;;;;6154425;28;20049;-82
2021/09/01 10:42:44;;;;;;;5.53;4.20;;;26.60;84.70;;;;;;6177341;28;20429;-82
2021/09/01 10:45:47;;;;;;;5.03;4.53;;;26.20;65.50;;;;;;6161139;28;20050;-85
2021/09/01 10:48:59;;;;;;;6.95;4.70;;;26.30;66.80;;;;;;6192995;28;20030;-84
2021/09/01 10:52:03;;;;;;;6.55;4.97;;;26.30;84.90;;;;;;6145739;28;20375;-84
2021/09/01 10:55:04;;;;;;;7.47;4.57;;;25.80;86.60;;;;;;6161154;28;20115;-85
2021/09/01 10:58:34;;;;;;;5.17;4.27;;;25.50;71.10;;;;;;6161272;28;20089;-83
2021/09/01 11:01:35;;;;;;;6.07;4.65;;;;;;;;;;6162758;28;20018;-84
2021/09/01 11:04:44;;;;;;;5.27;4.63;;;25.30;66.30;;;;;;6176708;28;20039;-84
2021/09/01 11:07:45;;;;;;;5.38;4.55;;;25.50;59.00;;;;;;6161399;28;20117;-85
2021/09/01 11:10:56;;;;;;;5.17;4.40;;;25.50;60.00;;;;;;6160678;28;20038;-85
2021/09/01 11:13:57;;;;;;;6.68;4.75;;;25.30;59.50;;;;;;6177770;28;20464;-84
2021/09/01 11:16:58;;;;;;;7.00;4.83;;;25.10;59.90;;;;;;6176797;28;20033;-85
2021/09/01 11:20:00;;;;;;;5.97;4.85;;;25.20;60.00;;;;;;6144470;28;20026;-88
2021/09/01 11:23:02;;;;;;;5.20;4.55;;;25.10;60.80;;;;;;6160648;28;20069;-86
2021/09/01 11:26:03;;;;;;;5.55;4.72;;;25.60;60.90;;;;;;6161000;28;20030;-84
2021/09/01 11:29:06;;;;;;;5.80;4.97;;;25.80;59.70;;;;;;6146801;28;20022;-84
2021/09/01 11:32:07;;;;;;;5.40;4.80;;;25.30;62.00;;;;;;6161614;28;20026;-87
2021/09/01 11:35:24;;;;;;;7.00;4.67;;;25.10;61.60;;;;;;6158455;28;20437;-86
2021/09/01 11:38:25;;;;;;;5.82;5.00;;;25.20;60.80;;;;;;6164222;28;20058;-82
2021/09/01 11:41:26;;;;;;;5.70;4.27;;;25.50;61.00;;;;;;6163693;28;20049;-83
2021/09/01 11:44:27;;;;;;;6.57;5.43;;;25.40;60.70;;;;;;6164741;28;20113;-82
2021/09/01 11:47:28;;;;;;;6.30;4.70;;;25.00;63.30;;;;;;6164192;28;20113;-87
2021/09/01 11:50:28;;;;;;;5.10;4.53;;;24.90;63.10;;;;;;6164639;28;20499;-86
2021/09/01 11:53:29;;;;;;;6.03;4.47;;;24.90;64.30;;;;;;6162728;28;20089;-82
2021/09/01 11:56:29;;;;;;;5.47;4.60;;;25.10;62.90;;;;;;6147657;28;20026;-84
2021/09/01 11:59:30;;;;;;;5.33;4.60;;;24.90;62.80;;;;;;6147668;28;20499;-85
2021/09/01 12:02:31;;;;;;;5.27;4.77;;;24.80;64.70;;;;;;6147959;28;20118;-85
2021/09/01 12:05:32;;;;;;;5.40;4.77;;;24.50;63.40;;;;;;6163721;28;20038;-81
2021/09/01 12:08:47;;;;;;;5.77;4.63;;;24.60;63.90;;;;;;6163530;28;20775;-84
2021/09/01 12:12:01;;;;;;;6.65;5.43;;;25.00;64.20;;;;;;6164404;28;20076;-85
2021/09/01 12:15:15;;;;;;;6.57;5.15;;;25.30;63.40;;;;;;6163930;28;20041;-84
2021/09/01 12:18:16;;;;;;;7.18;4.88;;;25.10;77.30;;;;;;6163746;28;20030;-83
2021/09/01 12:21:17;;;;;;;5.80;4.87;;;25.00;62.10;;;;;;6163752;28;20045;-87
2021/09/01 12:24:23;;;;;;;5.68;5.03;;;24.20;64.60;;;;;;6163789;28;20038;-86
2021/09/01 12:27:24;;;;;;;6.72;4.82;;;25.00;64.10;;;;;;6147936;28;20058;-82
2021/09/01 12:30:29;;;;;;;7.40;5.10;;;25.10;63.20;;;;;;6147284;28;20064;-84
2021/09/01 12:33:29;;;;;;;5.63;4.78;;;25.00;61.70;;;;;;6163177;28;20465;-84
2021/09/01 12:36:30;;;;;;;6.27;5.30;;;24.50;79.30;;;;;;6162590;28;20136;-83
2021/09/01 12:39:53;;;;;;;7.00;4.93;;;24.40;78.70;;;;;;6163388;28;20121;-91
2021/09/01 12:43:05;;;;;;;6.95;5.25;;;25.60;64.60;;;;;;6180195;28;20037;-88
2021/09/01 12:46:06;;;;;;;9.95;5.82;;;;;;;;;;6169004;28;20477;-81
2021/09/01 12:49:23;;;;;;;5.70;5.05;;;24.40;74.40;;;;;;6180860;28;20037;-81
2021/09/01 12:52:25;;;;;;;6.35;4.93;;;;;;;;;;6163851;28;20376;-85
2021/09/01 12:55:29;;;;;;;5.60;5.00;;;24.60;77.80;;;;;;6177913;28;20023;-81
2021/09/01 12:58:30;;;;;;;6.15;5.05;;;;;;;;;;6145381;28;20038;-82
2021/09/01 13:01:31;;;;;;;5.70;5.10;;;;;;;;;;6178654;28;20121;-82
2021/09/01 13:04:32;;;;;;;5.93;4.87;;;;;;;;;;6178709;28;20038;-83
2021/09/01 13:07:33;;;;;;;6.80;4.80;;;;;;;;;;6179115;28;20105;-80
2021/09/01 13:10:34;;;;;;;5.23;4.57;;;24.40;79.90;;;;;;6178341;28;20057;-84
2021/09/01 13:13:35;;;;;;;6.57;5.50;;;24.10;67.20;;;;;;6196217;28;20483;-82
2021/09/01 13:16:35;;;;;;;5.37;4.83;;;24.20;63.90;;;;;;6162277;28;20117;-80
2021/09/01 13:19:36;;;;;;;7.03;5.13;;;24.20;67.40;;;;;;6162100;28;20042;-82
2021/09/01 13:22:36;;;;;;;7.53;5.03;;;24.40;64.80;;;;;;6162518;28;20392;-81
2021/09/01 13:25:37;;;;;;;6.60;4.87;;;24.40;64.60;;;;;;6177606;28;20042;-80
2021/09/01 13:28:38;;;;;;;5.63;4.93;;;24.40;62.20;;;;;;6177568;28;20464;-82
2021/09/01 13:31:39;;;;;;;6.10;5.23;;;24.50;63.40;;;;;;6177730;28;20089;-80
2021/09/01 13:34:39;;;;;;;7.10;5.23;;;24.40;64.40;;;;;;6161092;28;20491;-81
2021/09/01 13:37:40;;;;;;;6.53;5.20;;;24.20;65.40;;;;;;6161052;28;20046;-80
2021/09/01 13:40:40;;;;;;;6.67;5.30;;;24.00;65.30;;;;;;6177742;28;20038;-79
2021/09/01 13:43:41;;;;;;;6.07;4.83;;;24.10;67.40;;;;;;6177715;28;20479;-79
2021/09/01 13:46:42;;;;;;;5.55;4.82;;;24.20;64.30;;;;;;6145889;28;20080;-78
2021/09/01 13:49:42;;;;;;;7.10;4.83;;;24.20;62.40;;;;;;6143057;28;20448;-81
2021/09/01 13:52:43;;;;;;;6.73;5.00;;;24.20;65.10;;;;;;6144987;28;20038;-79
2021/09/01 13:55:43;;;;;;;5.57;4.97;;;24.40;64.90;;;;;;6195059;28;20028;-80
2021/09/01 13:58:44;;;;;;;9.07;5.30;;;24.40;64.40;;;;;;6159985;28;20034;-81
2021/09/01 14:01:45;;;;;;;6.30;5.03;;;24.50;68.30;;;;;;6161428;28;20030;-78
2021/09/01 14:04:45;;;;;;;5.67;5.07;;;24.50;79.40;;;;;;6177179;28;20053;-78
2021/09/01 14:07:46;;;;;;;5.70;5.10;;;24.50;64.40;;;;;;6177296;28;20030;-78
2021/09/01 14:10:47;;;;;;;5.67;4.80;;;24.60;63.10;;;;;;6160940;28;20026;-79
2021/09/01 14:13:47;;;;;;;5.63;4.60;;;24.50;64.50;;;;;;6177380;28;20264;-79
2021/09/01 14:16:48;;;;;;;8.60;5.17;;;24.50;64.30;;;;;;6161081;28;20018;-79
2021/09/01 14:19:48;;;;;;;6.43;5.33;;;24.50;63.40;;;;;;6144498;28;20038;-77
2021/09/01 14:22:49;;;;;;;7.70;4.97;;;24.50;63.70;;;;;;6144821;28;20129;-79
2021/09/01 14:25:50;;;;;;;5.83;5.23;;;24.60;62.30;;;;;;6176600;28;20370;-79
2021/09/01 14:28:51;;;;;;;5.87;4.93;;;24.60;65.60;;;;;;6160636;28;20022;-79
2021/09/01 14:31:51;;;;;;;6.97;4.97;;;24.40;67.80;;;;;;6160398;28;20033;-79
2021/09/01 14:34:52;;;;;;;6.77;5.50;;;24.50;66.90;;;;;;6194237;28;20042;-78
2021/09/01 14:37:53;;;;;;;7.57;4.77;;;24.30;67.30;;;;;;6159837;28;20104;-79
2021/09/01 14:40:54;;;;;;;6.07;5.47;;;24.30;68.30;;;;;;6176679;28;20041;-79
2021/09/01 14:43:55;;;;;;;7.55;5.53;;;24.30;67.00;;;;;;6176499;28;20453;-79
2021/09/01 14:46:55;;;;;;;6.17;4.97;;;24.40;66.40;;;;;;6159751;28;20042;-79
2021/09/01 14:49:56;;;;;;;5.40;4.80;;;24.40;68.60;;;;;;6176949;28;20026;-79
2021/09/01 14:52:57;;;;;;;5.97;5.37;;;24.40;66.60;;;;;;6176348;28;20022;-80
2021/09/01 14:55:57;;;;;;;6.73;5.20;;;24.30;65.50;;;;;;6160638;28;20041;-82
2021/09/01 14:58:58;;;;;;;8.10;5.17;;;24.30;65.80;;;;;;6176821;28;20458;-80
2021/09/01 15:01:59;;;;;;;5.67;5.07;;;24.20;67.40;;;;;;6176333;28;20848;-80
2021/09/01 15:04:59;;;;;;;6.87;5.50;;;24.10;67.30;;;;;;6160308;28;20045;-83
2021/09/01 15:08:00;;;;;;;7.65;5.15;;;24.00;67.30;;;;;;6160323;28;20034;-80
2021/09/01 15:11:00;;;;;;;6.57;5.30;;;23.90;69.10;;;;;;6179298;28;20154;-83
2021/09/01 15:14:01;;;;;;;7.77;5.67;;;23.90;70.10;;;;;;6165735;28;20125;-80
2021/09/01 15:17:02;;;;;;;6.33;5.53;;;23.70;69.70;;;;;;6148902;28;20034;-82
2021/09/01 15:20:03;;;;;;;6.00;4.82;;;23.60;71.40;;;;;;6164639;28;20038;-83
2021/09/01 15:23:03;;;;;;;7.37;5.93;;;23.50;71.20;;;;;;6149766;28;20057;-81
2021/09/01 15:26:05;;;;;;;6.47;5.18;;;23.60;71.90;;;;;;6199505;28;20042;-81
2021/09/01 15:29:06;;;;;;;6.72;5.18;;;23.50;70.30;;;;;;6181159;28;20030;-81
2021/09/01 15:32:08;;;;;;;5.70;5.10;;;23.50;69.10;;;;;;6180878;28;20092;-80
2021/09/01 15:35:10;;;;;;;5.90;5.30;;;23.40;70.00;;;;;;6165210;28;20035;-79
2021/09/01 15:38:11;;;;;;;6.80;5.53;;;25.60;87.80;;;;;;6180345;28;20042;-80
2021/09/01 15:41:12;;;;;;;6.77;5.97;;;23.50;71.60;;;;;;6180793;28;20033;-81
2021/09/01 15:44:16;;;;;;;6.50;5.80;;;23.40;70.80;;;;;;6180034;28;20026;-82
2021/09/01 15:47:17;;;;;;;6.43;5.03;;;23.30;71.00;;;;;;6146297;28;20072;-80
2021/09/01 15:50:18;;;;;;;7.03;6.00;;;23.20;71.50;;;;;;6163350;28;20026;-79
2021/09/01 15:53:19;;;;;;;6.57;5.88;;;22.90;93.20;;;;;;6148247;28;20109;-80